Map

Track Data

SID SEASON NUMBER BASIN SUBBASIN NAME ISO_TIME NATURE LAT LON WMO_WIND WMO_PRES WMO_AGENCY TRACK_TYPE DIST2LAND LANDFALL IFLAG USA_AGENCY USA_ATCF_ID USA_LAT USA_LON USA_RECORD USA_STATUS USA_WIND USA_PRES USA_SSHS USA_R34_NE USA_R34_SE USA_R34_SW USA_R34_NW USA_R50_NE USA_R50_SE USA_R50_SW USA_R50_NW USA_R64_NE USA_R64_SE USA_R64_SW USA_R64_NW USA_POCI USA_ROCI USA_RMW USA_EYE TOKYO_LAT TOKYO_LON TOKYO_GRADE TOKYO_WIND TOKYO_PRES TOKYO_R50_DIR TOKYO_R50_LONG TOKYO_R50_SHORT TOKYO_R30_DIR TOKYO_R30_LONG TOKYO_R30_SHORT TOKYO_LAND CMA_LAT CMA_LON CMA_CAT CMA_WIND CMA_PRES HKO_LAT HKO_LON HKO_CAT HKO_WIND HKO_PRES NEWDELHI_LAT NEWDELHI_LON NEWDELHI_GRADE NEWDELHI_WIND NEWDELHI_PRES NEWDELHI_CI NEWDELHI_DP NEWDELHI_POCI REUNION_LAT REUNION_LON REUNION_TYPE REUNION_WIND REUNION_PRES REUNION_TNUM REUNION_CI REUNION_RMW REUNION_R34_NE REUNION_R34_SE REUNION_R34_SW REUNION_R34_NW REUNION_R50_NE REUNION_R50_SE REUNION_R50_SW REUNION_R50_NW REUNION_R64_NE REUNION_R64_SE REUNION_R64_SW REUNION_R64_NW BOM_LAT BOM_LON BOM_TYPE BOM_WIND BOM_PRES BOM_TNUM BOM_CI BOM_RMW BOM_R34_NE BOM_R34_SE BOM_R34_SW BOM_R34_NW BOM_R50_NE BOM_R50_SE BOM_R50_SW BOM_R50_NW BOM_R64_NE BOM_R64_SE BOM_R64_SW BOM_R64_NW BOM_ROCI BOM_POCI BOM_EYE BOM_POS_METHOD BOM_PRES_METHOD NADI_LAT NADI_LON NADI_CAT NADI_WIND NADI_PRES WELLINGTON_LAT WELLINGTON_LON WELLINGTON_WIND WELLINGTON_PRES DS824_LAT DS824_LON DS824_STAGE DS824_WIND DS824_PRES TD9636_LAT TD9636_LON TD9636_STAGE TD9636_WIND TD9636_PRES TD9635_LAT TD9635_LON TD9635_WIND TD9635_PRES TD9635_ROCI NEUMANN_LAT NEUMANN_LON NEUMANN_CLASS NEUMANN_WIND NEUMANN_PRES MLC_LAT MLC_LON MLC_CLASS MLC_WIND MLC_PRES USA_GUST BOM_GUST BOM_GUST_PER REUNION_GUST REUNION_GUST_PER USA_SEAHGT USA_SEARAD_NE USA_SEARAD_SE USA_SEARAD_SW USA_SEARAD_NW STORM_SPEED STORM_DIR
1939041S15070 1939 14 SI MM NOT_NAMED 1939-02-09 18:00:00 NR -15.0000 69.8000 main 1402 1339 __________O___ -1 -15.0000 69.8000 7 13 240
1939041S15070 1939 14 SI MM NOT_NAMED 1939-02-09 21:00:00 NR -15.3261 69.2216 main 1329 1266 __________P___ -1 -15.3261 69.2216 7 13 240
1939041S15070 1939 14 SI MM NOT_NAMED 1939-02-10 00:00:00 NR -15.6513 68.6439 main 1252 1189 __________P___ -1 -15.6513 68.6439 7 13 240
1939041S15070 1939 14 SI MM NOT_NAMED 1939-02-10 03:00:00 NR -15.9757 68.0692 main 1189 1117 __________P___ -1 -15.9757 68.0692 7 13 239
1939041S15070 1939 14 SI MM NOT_NAMED 1939-02-10 06:00:00 TS -16.3000 67.5000 main 1117 1054 _________OO___ -1 -16.3000 67.5000 TC 35 -16.3000 67.5000 2 13 240
1939041S15070 1939 14 SI MM NOT_NAMED 1939-02-10 09:00:00 TS -16.6123 66.9422 main 1045 982 _________PP___ -1 -16.5878 66.9502 TC 35 -16.6245 66.9382 2 12 239
1939041S15070 1939 14 SI MM NOT_NAMED 1939-02-10 12:00:00 TS -16.9282 66.3910 main 982 920 _________OP___ -1 -16.9000 66.4000 TC 35 -16.9494 66.3843 2 12 238
1939041S15070 1939 14 SI MM NOT_NAMED 1939-02-10 15:00:00 TS -17.2622 65.8441 main 906 844 _________PP___ -1 -17.2499 65.8499 TC 35 -17.2746 65.8382 2 12 237
1939041S15070 1939 14 SI MM NOT_NAMED 1939-02-10 18:00:00 TS -17.6000 65.3000 main 844 782 _________OO___ -1 -17.6000 65.3000 TC 35 -17.6000 65.3000 2 12 238
1939041S15070 1939 14 SI MM NOT_NAMED 1939-02-10 21:00:00 TS -17.9164 64.7468 main 773 711 _________PP___ -1 -17.8999 64.7422 TC 35 -17.9329 64.7514 2 12 239
1939041S15070 1939 14 SI MM NOT_NAMED 1939-02-11 00:00:00 TS -18.2324 64.2061 main 711 647 _________OP___ -1 -18.2000 64.2000 TC 35 -18.2647 64.2123 2 12 237
1939041S15070 1939 14 SI MM NOT_NAMED 1939-02-11 03:00:00 TS -18.5733 63.6885 main 647 586 _________PP___ -1 -18.5574 63.6850 TC 35 -18.5892 63.6920 2 12 235
1939041S15070 1939 14 SI MM NOT_NAMED 1939-02-11 06:00:00 TS -18.9000 63.2000 main 586 537 _________OO___ -1 -18.9000 63.2000 TC 35 -18.9000 63.2000 2 11 236
1939041S15070 1939 14 SI MM NOT_NAMED 1939-02-11 09:00:00 TS -19.1690 62.7400 main 527 481 _________PP___ -1 -19.1574 62.7347 TC 35 -19.1806 62.7453 2 10 238
1939041S15070 1939 14 SI MM NOT_NAMED 1939-02-11 12:00:00 TS -19.4246 62.3093 main 481 433 _________OP___ -1 -19.4000 62.3000 TC 35 -19.4491 62.3187 2 10 236
1939041S15070 1939 14 SI MM NOT_NAMED 1939-02-11 15:00:00 TS -19.7052 61.9038 main 433 387 _________PP___ -1 -19.6923 61.8998 TC 50 -19.7182 61.9078 2 10 233
1939041S15070 1939 14 SI MM NOT_NAMED 1939-02-11 18:00:00 TS -20.0000 61.5000 main 387 344 _________OO___ -1 -20.0000 61.5000 TC 65 -20.0000 61.5000 3 10 233
1939041S15070 1939 14 SI MM NOT_NAMED 1939-02-11 21:00:00 TS -20.3035 61.0603 main 344 293 _________PP___ -1 -20.2925 61.0499 TC 65 -20.3144 61.0708 3 10 233
1939041S15070 1939 14 SI MM NOT_NAMED 1939-02-12 00:00:00 TS -20.6211 60.6211 main 293 258 _________OP___ -1 -20.6000 60.6000 TC 65 -20.6422 60.6423 3 10 231
1939041S15070 1939 14 SI MM NOT_NAMED 1939-02-12 03:00:00 TS -20.9618 60.2050 main 261 235 _________PP___ -1 -20.9499 60.1924 TC 65 -20.9738 60.2176 3 10 228
1939041S15070 1939 14 SI MM NOT_NAMED 1939-02-12 06:00:00 TS -21.3000 59.8000 main 235 215 _________OO___ -1 -21.3000 59.8000 TC 65 -21.3000 59.8000 4 10 230
1939041S15070 1939 14 SI MM NOT_NAMED 1939-02-12 09:00:00 TS -21.6051 59.3939 main 215 205 _________PP___ -1 -21.6074 59.3998 TC 65 -21.6028 59.3881 4 10 231
1939041S15070 1939 14 SI MM NOT_NAMED 1939-02-12 12:00:00 TS -21.8998 58.9921 main 206 199 _________OP___ -1 -21.9000 59.0000 TC 65 -21.8996 58.9841 4 10 231
1939041S15070 1939 14 SI MM NOT_NAMED 1939-02-12 15:00:00 TS -22.1982 58.5940 main 211 207 _________PP___ -1 -22.1999 58.5998 TC 65 -22.1966 58.5881 4 10 231
1939041S15070 1939 14 SI MM NOT_NAMED 1939-02-12 18:00:00 TS -22.5000 58.2000 main 229 227 _________OO___ -1 -22.5000 58.2000 TC 65 -22.5000 58.2000 4 9 230
1939041S15070 1939 14 SI MM NOT_NAMED 1939-02-12 21:00:00 TS -22.8008 57.8107 main 257 257 _________PP___ -1 -22.7925 57.7923 TC 65 -22.8091 57.8291 4 9 229
1939041S15070 1939 14 SI MM NOT_NAMED 1939-02-13 00:00:00 TS -23.1134 57.4318 main 260 260 _________OP___ -1 -23.1000 57.4000 TC 65 -23.1267 57.4636 4 9 226
1939041S15070 1939 14 SI MM NOT_NAMED 1939-02-13 03:00:00 TS -23.4454 57.0743 main 270 270 _________PP___ -1 -23.4348 57.0571 TC 65 -23.4560 57.0914 4 10 224
1939041S15070 1939 14 SI MM NOT_NAMED 1939-02-13 06:00:00 TS -23.8000 56.7000 main 291 291 _________OO___ -1 -23.8000 56.7000 TC 65 -23.8000 56.7000 4 10 225
1939041S15070 1939 14 SI MM NOT_NAMED 1939-02-13 09:00:00 TS -24.1741 56.2719 main 321 318 _________PP___ -1 -24.2000 56.2650 TC 65 -24.1482 56.2789 4 11 227
1939041S15070 1939 14 SI MM NOT_NAMED 1939-02-13 12:00:00 TS -24.5561 55.8181 main 358 357 _________OP___ -1 -24.6000 55.8000 TC 65 -24.5121 55.8362 4 11 228
1939041S15070 1939 14 SI MM NOT_NAMED 1939-02-13 15:00:00 TS -24.9186 55.3662 main 391 391 _________PP___ -1 -24.9423 55.3569 TC 65 -24.8950 55.3754 4 11 228
1939041S15070 1939 14 SI MM NOT_NAMED 1939-02-13 18:00:00 TS -25.3000 54.9000 main 441 441 _________OO___ -1 -25.3000 54.9000 TC 65 -25.3000 54.9000 4 12 227
1939041S15070 1939 14 SI MM NOT_NAMED 1939-02-13 21:00:00 TS -25.7421 54.3931 main 495 495 _________PP___ -1 -25.7349 54.4074 TC 50 -25.7492 54.3789 4 13 226
1939041S15070 1939 14 SI MM NOT_NAMED 1939-02-14 00:00:00 TS -26.2079 53.8746 main 563 563 _________OP___ -1 -26.2000 53.9000 TC 35 -26.2158 53.8492 4 13 225
1939041S15070 1939 14 SI MM NOT_NAMED 1939-02-14 03:00:00 TS -26.6735 53.3574 main 632 624 _________PP___ -1 -26.6726 53.3702 TC 35 -26.6743 53.3446 4 12 224
1939041S15070 1939 14 SI MM NOT_NAMED 1939-02-14 06:00:00 TS -27.1000 52.9000 main 624 605 _________OO___ -1 -27.1000 52.9000 TC 35 -27.1000 52.9000 2 10 223
1939041S15070 1939 14 SI MM NOT_NAMED 1939-02-14 09:00:00 TS -27.4353 52.5560 main 610 599 _________PP___ -1 -27.4147 52.5619 TC 35 -27.4559 52.5502 2 8 221
1939041S15070 1939 14 SI MM NOT_NAMED 1939-02-14 12:00:00 TS -27.7394 52.2825 main 599 591 _________OP___ -1 -27.7000 52.3000 TC 35 -27.7788 52.2651 2 8 217
1939041S15070 1939 14 SI MM NOT_NAMED 1939-02-14 15:00:00 TS -28.0649 52.0287 main 597 594 _________PP___ -1 -28.0424 52.0349 TC 35 -28.0874 52.0225 2 8 213
1939041S15070 1939 14 SI MM NOT_NAMED 1939-02-14 18:00:00 TS -28.4000 51.8000 main 601 600 _________OO___ -1 -28.4000 51.8000 TC 35 -28.4000 51.8000 2 8 210
1939041S15070 1939 14 SI MM NOT_NAMED 1939-02-14 21:00:00 TS -28.7503 51.5799 main 614 607 _________PP___ -1 -28.7499 51.5997 TC 35 -28.7507 51.5602 2 8 208
1939041S15070 1939 14 SI MM NOT_NAMED 1939-02-15 00:00:00 TS -29.1036 51.3672 main 623 616 _________OP___ -1 -29.1000 51.4000 TC 35 -29.1072 51.3344 2 8 209
1939041S15070 1939 14 SI MM NOT_NAMED 1939-02-15 03:00:00 TS -29.4588 51.1370 main 636 636 _________PP___ -1 -29.4575 51.1575 TC 35 -29.4601 51.1165 2 8 210
1939041S15070 1939 14 SI MM NOT_NAMED 1939-02-15 06:00:00 TS -29.8000 50.9000 main 650 650 _________OO___ -1 -29.8000 50.9000 TC 35 -29.8000 50.9000 2 8 213
1939041S15070 1939 14 SI MM NOT_NAMED 1939-02-15 09:00:00 TS -30.1150 50.6505 main 666 661 _________PP___ -1 -30.1075 50.6424 TC 35 -30.1225 50.6586 2 7 215
1939041S15070 1939 14 SI MM NOT_NAMED 1939-02-15 12:00:00 TS -30.4150 50.4100 main 679 679 _________OP___ -1 -30.4000 50.4000 TC 35 -30.4301 50.4200 2 7 213
1939041S15070 1939 14 SI MM NOT_NAMED 1939-02-15 15:00:00 TS -30.7150 50.1906 main 698 698 _________PP___ -1 -30.7075 50.1849 TC 35 -30.7226 50.1963 2 7 211
1939041S15070 1939 14 SI MM NOT_NAMED 1939-02-15 18:00:00 TS -31.0000 50.0000 main 719 719 _________OO___ -1 -31.0000 50.0000 TC 35 -31.0000 50.0000 2 6 209
1939041S15070 1939 14 SI MM NOT_NAMED 1939-02-15 21:00:00 TS -31.2608 49.8422 main 741 741 _________PP___ -1 -31.2575 49.8349 TC 35 -31.2641 49.8495 2 6 206
1939041S15070 1939 14 SI MM NOT_NAMED 1939-02-16 00:00:00 TS -31.5073 49.7132 main 758 758 _________OP___ -1 -31.5000 49.7000 TC 35 -31.5147 49.7265 2 5 202
1939041S15070 1939 14 SI MM NOT_NAMED 1939-02-16 03:00:00 TS -31.7539 49.6075 main 785 785 _________PP___ -1 -31.7500 49.5998 TC 35 -31.7579 49.6152 2 5 200
1939041S15070 1939 14 SI MM NOT_NAMED 1939-02-16 06:00:00 TS -32.0000 49.5000 main 803 803 _________OO___ -1 -32.0000 49.5000 TC 35 -32.0000 49.5000 2 5 203
1939041S15070 1939 14 SI MM NOT_NAMED 1939-02-16 09:00:00 TS -32.2541 49.3533 main 831 829 _________PP___ -1 -32.2500 49.3575 TC 35 -32.2582 49.3492 2 6 207
1939041S15070 1939 14 SI MM NOT_NAMED 1939-02-16 12:00:00 TS -32.5075 49.1963 main 847 847 _________OP___ -1 -32.5000 49.2000 TC 35 -32.5151 49.1927 2 6 207
1939041S15070 1939 14 SI MM NOT_NAMED 1939-02-16 15:00:00 TS -32.7610 49.0412 main 872 872 _________PP___ -1 -32.7575 49.0425 TC 35 -32.7644 49.0398 2 6 207
1939041S15070 1939 14 SI MM NOT_NAMED 1939-02-16 18:00:00 TS -33.0000 48.9000 main 888 888 _________OO___ -1 -33.0000 48.9000 TC 35 -33.0000 48.9000 2 5 205
1939041S15070 1939 14 SI MM NOT_NAMED 1939-02-16 21:00:00 TS -33.2068 48.7927 main 906 906 _________PP___ -1 -33.2075 48.7924 TC 35 -33.2061 48.7931 2 4 203
1939041S15070 1939 14 SI MM NOT_NAMED 1939-02-17 00:00:00 TS -33.3999 48.6996 main 923 923 _________OP___ -1 -33.4000 48.7000 TC 35 -33.3998 48.6991 2 4 201
1939041S15070 1939 14 SI MM NOT_NAMED 1939-02-17 03:00:00 TS -33.5930 48.6065 main 941 941 _________PP___ -1 -33.5925 48.6074 TC 35 -33.5936 48.6056 2 4 203
1939041S15070 1939 14 SI MM NOT_NAMED 1939-02-17 06:00:00 TS -33.8000 48.5000 main 959 959 _________OO___ -1 -33.8000 48.5000 TC 35 -33.8000 48.5000 2 5 205
1939041S15070 1939 14 SI MM NOT_NAMED 1939-02-17 09:00:00 TS -34.0411 48.3570 main 978 978 _________PP___ -1 -34.0425 48.3575 TC 35 -34.0398 48.3565 2 6 206
1939041S15070 1939 14 SI MM NOT_NAMED 1939-02-17 12:00:00 TS -34.2963 48.2002 main 1004 1004 _________OP___ -1 -34.3000 48.2000 TC 35 -34.2926 48.2004 2 6 207
1939041S15070 1939 14 SI MM NOT_NAMED 1939-02-17 15:00:00 TS -34.5533 48.0433 main 1032 1032 _________PP___ -1 -34.5575 48.0425 TC 35 -34.5491 48.0440 2 6 206
1939041S15070 1939 14 SI MM NOT_NAMED 1939-02-17 18:00:00 TS -34.8000 47.9000 main 1052 1052 _________OO___ -1 -34.8000 47.9000 TC 35 -34.8000 47.9000 2 5 205
1939041S15070 1939 14 SI MM NOT_NAMED 1939-02-17 21:00:00 TS -35.0079 47.7887 main 1071 1071 _________PP___ -1 -35.0000 47.7923 TC 35 -35.0158 47.7851 2 4 202
1939041S15070 1939 14 SI MM NOT_NAMED 1939-02-18 00:00:00 TS -35.2137 47.6921 main 1091 1091 _________OP___ -1 -35.2000 47.7000 TC 35 -35.2274 47.6842 2 5 200
1939041S15070 1939 14 SI MM NOT_NAMED 1939-02-18 03:00:00 TS -35.4426 47.5956 main 1111 1111 _________PP___ -1 -35.4350 47.5999 TC 35 -35.4502 47.5913 2 5 198
1939041S15070 1939 14 SI MM NOT_NAMED 1939-02-18 06:00:00 TS -35.7000 47.5000 main 1142 1142 _________OO___ -1 -35.7000 47.5000 TC 35 -35.7000 47.5000 2 6 197
1939041S15070 1939 14 SI MM NOT_NAMED 1939-02-18 09:00:00 TS -35.9947 47.3960 main 1174 1174 _________PP___ -1 -35.9850 47.3999 TC 35 -36.0044 47.3921 2 6 195
1939041S15070 1939 14 SI MM NOT_NAMED 1939-02-18 12:00:00 TS -36.3175 47.2927 main 1205 1205 _________OP___ -1 -36.3000 47.3000 TC 35 -36.3350 47.2854 2 7 194
1939041S15070 1939 14 SI MM NOT_NAMED 1939-02-18 15:00:00 TS -36.6616 47.1892 main 1248 1248 _________PP___ -1 -36.6500 47.1926 TC 35 -36.6732 47.1859 2 7 193
1939041S15070 1939 14 SI MM NOT_NAMED 1939-02-18 18:00:00 TS -37.0000 47.1000 main 1280 1280 _________OO___ -1 -37.0000 47.1000 TC 35 -37.0000 47.1000 2 7 190
1939041S15070 1939 14 SI MM NOT_NAMED 1939-02-18 21:00:00 TS -37.3103 47.0388 main 1312 1312 _________PP___ -1 -37.3150 47.0424 TC 35 -37.3056 47.0352 2 6 188
1939041S15070 1939 14 SI MM NOT_NAMED 1939-02-19 00:00:00 TS -37.5975 46.9923 main 1346 1346 _________OP___ -1 -37.6000 47.0000 TC 35 -37.5949 46.9845 2 6 187
1939041S15070 1939 14 SI MM NOT_NAMED 1939-02-19 03:00:00 TS -37.8672 46.9458 main 1378 1378 _________PP___ -1 -37.8725 46.9500 TC 35 -37.8618 46.9416 2 5 187
1939041S15070 1939 14 SI MM NOT_NAMED 1939-02-19 06:00:00 TS -38.1000 46.9000 main 1400 1400 _________OO___ -1 -38.1000 46.9000 TC 35 -38.1000 46.9000 2 4 191
1939041S15070 1939 14 SI MM NOT_NAMED 1939-02-19 09:00:00 TS -38.2705 46.8498 main 1421 1421 _________PP___ -1 -38.2575 46.8499 TC 35 -38.2834 46.8497 2 3 194
1939041S15070 1939 14 SI MM NOT_NAMED 1939-02-19 12:00:00 TS -38.4212 46.7998 main 1432 1432 _________OP___ -1 -38.4000 46.8000 TC 35 -38.4425 46.7996 2 3 194
1939041S15070 1939 14 SI MM NOT_NAMED 1939-02-19 15:00:00 TS -38.5914 46.7498 main 1454 1454 _________PP___ -1 -38.5775 46.7500 TC 35 -38.6053 46.7497 2 4 192
1939041S15070 1939 14 SI MM NOT_NAMED 1939-02-19 18:00:00 TS -38.8000 46.7000 main 1476 1476 _________OO___ -1 -38.8000 46.7000 TC 35 -38.8000 46.7000 2 5 189
1939041S15070 1939 14 SI MM NOT_NAMED 1939-02-19 21:00:00 TS -39.0663 46.6502 main 1509 1509 _________PP___ -1 -39.0850 46.6500 TC 35 -39.0475 46.6503 2 6 188
1939041S15070 1939 14 SI MM NOT_NAMED 1939-02-20 00:00:00 TS -39.3700 46.6003 main 1542 1542 _________OP___ -1 -39.4000 46.6000 TC 35 -39.3400 46.6006 2 6 188
1939041S15070 1939 14 SI MM NOT_NAMED 1939-02-20 03:00:00 TS -39.6838 46.5503 main 1575 1575 _________PP___ -1 -39.7050 46.5501 TC 35 -39.6625 46.5505 2 6 188
1939041S15070 1939 14 SI MM NOT_NAMED 1939-02-20 06:00:00 TS -40.0000 46.5000 main 1608 _________OO___ -1 -40.0000 46.5000 TC 35 -40.0000 46.5000 2 6 188

About IBTrACS Database

This database is a web-friendly format of International Best Track Archive for Climate Stewardship (IBTrACS), a global best track data archive curated by NOAA dating back to 1842.

Updated: 2021-12-03